sensor_id;sensor_type;location;lat;lon;timestamp;P1;durP1;ratioP1;P2;durP2;ratioP2
20034;SDS011;10178;48.034;9.800;2022-12-10T00:00:35;27.23;;;17.97;;
20034;SDS011;10178;48.034;9.800;2022-12-10T00:03:01;27.73;;;18.17;;
20034;SDS011;10178;48.034;9.800;2022-12-10T00:05:27;28.37;;;17.97;;
20034;SDS011;10178;48.034;9.800;2022-12-10T00:07:52;29.87;;;18.37;;
20034;SDS011;10178;48.034;9.800;2022-12-10T00:10:18;30.53;;;18.07;;
20034;SDS011;10178;48.034;9.800;2022-12-10T00:12:44;30.70;;;18.70;;
20034;SDS011;10178;48.034;9.800;2022-12-10T00:15:09;29.67;;;17.77;;
20034;SDS011;10178;48.034;9.800;2022-12-10T00:17:35;30.67;;;18.13;;
20034;SDS011;10178;48.034;9.800;2022-12-10T00:20:01;28.17;;;17.90;;
20034;SDS011;10178;48.034;9.800;2022-12-10T00:22:27;29.10;;;17.83;;
20034;SDS011;10178;48.034;9.800;2022-12-10T00:24:53;29.33;;;18.23;;
20034;SDS011;10178;48.034;9.800;2022-12-10T00:27:18;29.47;;;18.63;;
20034;SDS011;10178;48.034;9.800;2022-12-10T00:29:44;29.73;;;17.70;;
20034;SDS011;10178;48.034;9.800;2022-12-10T00:32:10;30.57;;;18.73;;
20034;SDS011;10178;48.034;9.800;2022-12-10T00:34:35;31.73;;;18.40;;
20034;SDS011;10178;48.034;9.800;2022-12-10T00:37:01;28.03;;;17.97;;
20034;SDS011;10178;48.034;9.800;2022-12-10T00:39:27;31.27;;;19.17;;
20034;SDS011;10178;48.034;9.800;2022-12-10T00:41:52;30.77;;;18.07;;
20034;SDS011;10178;48.034;9.800;2022-12-10T00:44:18;28.27;;;17.97;;
20034;SDS011;10178;48.034;9.800;2022-12-10T00:46:44;32.27;;;18.40;;
20034;SDS011;10178;48.034;9.800;2022-12-10T00:49:10;29.93;;;18.03;;
20034;SDS011;10178;48.034;9.800;2022-12-10T00:51:35;34.87;;;19.70;;
20034;SDS011;10178;48.034;9.800;2022-12-10T00:54:01;33.27;;;19.93;;
20034;SDS011;10178;48.034;9.800;2022-12-10T00:56:29;31.67;;;18.47;;
20034;SDS011;10178;48.034;9.800;2022-12-10T00:58:56;32.13;;;19.07;;
20034;SDS011;10178;48.034;9.800;2022-12-10T01:03:57;30.60;;;18.60;;
20034;SDS011;10178;48.034;9.800;2022-12-10T01:06:25;29.10;;;17.53;;
20034;SDS011;10178;48.034;9.800;2022-12-10T01:08:55;31.87;;;19.10;;
20034;SDS011;10178;48.034;9.800;2022-12-10T01:11:24;32.20;;;18.70;;
20034;SDS011;10178;48.034;9.800;2022-12-10T01:13:51;31.97;;;18.10;;
20034;SDS011;10178;48.034;9.800;2022-12-10T01:16:18;31.37;;;19.00;;
20034;SDS011;10178;48.034;9.800;2022-12-10T01:18:45;29.10;;;18.17;;
20034;SDS011;10178;48.034;9.800;2022-12-10T01:21:12;30.27;;;17.90;;
20034;SDS011;10178;48.034;9.800;2022-12-10T01:23:41;30.73;;;18.37;;
20034;SDS011;10178;48.034;9.800;2022-12-10T01:26:10;33.40;;;18.57;;
20034;SDS011;10178;48.034;9.800;2022-12-10T01:28:38;29.23;;;17.53;;
20034;SDS011;10178;48.034;9.800;2022-12-10T01:31:07;31.67;;;18.67;;
20034;SDS011;10178;48.034;9.800;2022-12-10T01:33:37;29.60;;;18.10;;
20034;SDS011;10178;48.034;9.800;2022-12-10T01:36:05;30.83;;;19.07;;
20034;SDS011;10178;48.034;9.800;2022-12-10T01:38:33;31.50;;;18.67;;
20034;SDS011;10178;48.034;9.800;2022-12-10T01:40:59;31.43;;;18.23;;
20034;SDS011;10178;48.034;9.800;2022-12-10T01:43:26;30.93;;;17.40;;
20034;SDS011;10178;48.034;9.800;2022-12-10T01:45:52;29.00;;;18.03;;
20034;SDS011;10178;48.034;9.800;2022-12-10T01:48:18;29.63;;;18.00;;
20034;SDS011;10178;48.034;9.800;2022-12-10T01:50:44;29.63;;;17.73;;
20034;SDS011;10178;48.034;9.800;2022-12-10T01:53:11;28.50;;;17.90;;
20034;SDS011;10178;48.034;9.800;2022-12-10T01:55:40;27.83;;;17.17;;
20034;SDS011;10178;48.034;9.800;2022-12-10T01:58:13;27.80;;;17.07;;
20034;SDS011;10178;48.034;9.800;2022-12-10T02:00:43;28.90;;;17.43;;
20034;SDS011;10178;48.034;9.800;2022-12-10T02:03:35;27.77;;;17.43;;
20034;SDS011;10178;48.034;9.800;2022-12-10T02:06:30;27.23;;;17.03;;
20034;SDS011;10178;48.034;9.800;2022-12-10T02:17:11;29.43;;;17.53;;
20034;SDS011;10178;48.034;9.800;2022-12-10T02:22:49;28.73;;;16.73;;
20034;SDS011;10178;48.034;9.800;2022-12-10T02:25:26;27.50;;;16.90;;
20034;SDS011;10178;48.034;9.800;2022-12-10T02:30:42;28.90;;;17.10;;
20034;SDS011;10178;48.034;9.800;2022-12-10T02:33:09;27.23;;;17.37;;
20034;SDS011;10178;48.034;9.800;2022-12-10T02:35:37;27.77;;;17.57;;
20034;SDS011;10178;48.034;9.800;2022-12-10T02:38:16;29.47;;;17.30;;
20034;SDS011;10178;48.034;9.800;2022-12-10T02:40:48;25.37;;;16.07;;
20034;SDS011;10178;48.034;9.800;2022-12-10T02:43:17;28.00;;;17.60;;
20034;SDS011;10178;48.034;9.800;2022-12-10T02:45:43;26.80;;;16.83;;
20034;SDS011;10178;48.034;9.800;2022-12-10T02:48:10;27.57;;;17.00;;
20034;SDS011;10178;48.034;9.800;2022-12-10T02:50:36;27.77;;;17.60;;
20034;SDS011;10178;48.034;9.800;2022-12-10T02:53:02;29.67;;;17.40;;
20034;SDS011;10178;48.034;9.800;2022-12-10T02:55:29;27.87;;;16.67;;
20034;SDS011;10178;48.034;9.800;2022-12-10T02:58:31;26.73;;;16.50;;
20034;SDS011;10178;48.034;9.800;2022-12-10T03:04:13;28.40;;;17.30;;
20034;SDS011;10178;48.034;9.800;2022-12-10T03:07:01;27.70;;;16.77;;
20034;SDS011;10178;48.034;9.800;2022-12-10T03:09:36;28.73;;;16.93;;
20034;SDS011;10178;48.034;9.800;2022-12-10T03:12:18;28.70;;;17.63;;
20034;SDS011;10178;48.034;9.800;2022-12-10T03:15:04;28.57;;;17.37;;
20034;SDS011;10178;48.034;9.800;2022-12-10T03:17:33;30.27;;;18.00;;
20034;SDS011;10178;48.034;9.800;2022-12-10T03:20:01;26.57;;;16.53;;
20034;SDS011;10178;48.034;9.800;2022-12-10T03:22:28;28.63;;;16.40;;
20034;SDS011;10178;48.034;9.800;2022-12-10T03:24:55;28.30;;;16.27;;
20034;SDS011;10178;48.034;9.800;2022-12-10T03:27:23;28.77;;;17.03;;
20034;SDS011;10178;48.034;9.800;2022-12-10T03:29:50;30.20;;;16.47;;
20034;SDS011;10178;48.034;9.800;2022-12-10T03:32:18;27.10;;;16.63;;
20034;SDS011;10178;48.034;9.800;2022-12-10T03:34:46;27.87;;;17.33;;
20034;SDS011;10178;48.034;9.800;2022-12-10T03:37:13;26.23;;;16.37;;
20034;SDS011;10178;48.034;9.800;2022-12-10T03:39:40;27.87;;;16.97;;
20034;SDS011;10178;48.034;9.800;2022-12-10T03:42:07;31.73;;;17.83;;
20034;SDS011;10178;48.034;9.800;2022-12-10T03:44:35;27.67;;;17.10;;
20034;SDS011;10178;48.034;9.800;2022-12-10T03:47:03;29.23;;;17.97;;
20034;SDS011;10178;48.034;9.800;2022-12-10T03:49:31;29.20;;;16.57;;
20034;SDS011;10178;48.034;9.800;2022-12-10T03:51:56;30.33;;;18.20;;
20034;SDS011;10178;48.034;9.800;2022-12-10T03:54:22;27.13;;;17.13;;
20034;SDS011;10178;48.034;9.800;2022-12-10T03:56:48;29.33;;;17.67;;
20034;SDS011;10178;48.034;9.800;2022-12-10T03:59:14;30.87;;;17.77;;
20034;SDS011;10178;48.034;9.800;2022-12-10T04:01:39;28.97;;;17.33;;
20034;SDS011;10178;48.034;9.800;2022-12-10T04:04:05;30.93;;;17.77;;
20034;SDS011;10178;48.034;9.800;2022-12-10T04:06:31;30.13;;;18.03;;
20034;SDS011;10178;48.034;9.800;2022-12-10T04:08:57;30.93;;;17.37;;
20034;SDS011;10178;48.034;9.800;2022-12-10T04:11:22;30.33;;;18.23;;
20034;SDS011;10178;48.034;9.800;2022-12-10T04:13:48;27.37;;;16.73;;
20034;SDS011;10178;48.034;9.800;2022-12-10T04:16:33;29.80;;;16.80;;
20034;SDS011;10178;48.034;9.800;2022-12-10T04:19:18;40.20;;;20.63;;
20034;SDS011;10178;48.034;9.800;2022-12-10T04:21:44;30.30;;;16.87;;
20034;SDS011;10178;48.034;9.800;2022-12-10T04:24:30;30.73;;;17.47;;
20034;SDS011;10178;48.034;9.800;2022-12-10T04:27:23;29.70;;;17.57;;
20034;SDS011;10178;48.034;9.800;2022-12-10T04:29:51;29.00;;;17.30;;
20034;SDS011;10178;48.034;9.800;2022-12-10T04:32:17;33.17;;;18.07;;
20034;SDS011;10178;48.034;9.800;2022-12-10T04:34:43;33.80;;;17.77;;
20034;SDS011;10178;48.034;9.800;2022-12-10T04:37:10;33.90;;;17.83;;
20034;SDS011;10178;48.034;9.800;2022-12-10T04:39:36;33.43;;;18.93;;
20034;SDS011;10178;48.034;9.800;2022-12-10T04:42:02;31.33;;;17.77;;
20034;SDS011;10178;48.034;9.800;2022-12-10T04:44:29;33.33;;;18.03;;
20034;SDS011;10178;48.034;9.800;2022-12-10T04:46:54;31.87;;;17.17;;
20034;SDS011;10178;48.034;9.800;2022-12-10T04:49:20;32.17;;;17.93;;
20034;SDS011;10178;48.034;9.800;2022-12-10T04:51:46;32.87;;;18.30;;
20034;SDS011;10178;48.034;9.800;2022-12-10T04:54:12;33.23;;;18.33;;
20034;SDS011;10178;48.034;9.800;2022-12-10T04:56:38;30.67;;;17.60;;
20034;SDS011;10178;48.034;9.800;2022-12-10T04:59:04;35.03;;;18.13;;
20034;SDS011;10178;48.034;9.800;2022-12-10T05:01:30;32.03;;;17.73;;
20034;SDS011;10178;48.034;9.800;2022-12-10T05:04:00;35.50;;;18.43;;
20034;SDS011;10178;48.034;9.800;2022-12-10T05:06:27;32.33;;;18.47;;
20034;SDS011;10178;48.034;9.800;2022-12-10T05:08:53;34.13;;;17.90;;
20034;SDS011;10178;48.034;9.800;2022-12-10T05:11:19;34.07;;;18.50;;
20034;SDS011;10178;48.034;9.800;2022-12-10T05:13:46;31.83;;;17.60;;
20034;SDS011;10178;48.034;9.800;2022-12-10T05:16:13;32.13;;;16.70;;
20034;SDS011;10178;48.034;9.800;2022-12-10T05:18:42;31.00;;;17.33;;
20034;SDS011;10178;48.034;9.800;2022-12-10T05:21:10;29.87;;;17.07;;
20034;SDS011;10178;48.034;9.800;2022-12-10T05:23:38;31.73;;;16.67;;
20034;SDS011;10178;48.034;9.800;2022-12-10T05:28:35;31.23;;;17.03;;
20034;SDS011;10178;48.034;9.800;2022-12-10T05:31:10;30.90;;;16.53;;
20034;SDS011;10178;48.034;9.800;2022-12-10T05:33:38;29.00;;;16.90;;
20034;SDS011;10178;48.034;9.800;2022-12-10T05:36:03;30.50;;;16.93;;
20034;SDS011;10178;48.034;9.800;2022-12-10T05:38:30;30.03;;;15.90;;
20034;SDS011;10178;48.034;9.800;2022-12-10T05:41:01;27.87;;;15.93;;
20034;SDS011;10178;48.034;9.800;2022-12-10T05:43:28;31.13;;;16.10;;
20034;SDS011;10178;48.034;9.800;2022-12-10T05:45:53;32.80;;;16.13;;
20034;SDS011;10178;48.034;9.800;2022-12-10T05:48:23;31.83;;;16.33;;
20034;SDS011;10178;48.034;9.800;2022-12-10T05:50:48;31.20;;;17.27;;
20034;SDS011;10178;48.034;9.800;2022-12-10T05:53:14;30.87;;;17.20;;
20034;SDS011;10178;48.034;9.800;2022-12-10T05:55:42;30.93;;;16.93;;
20034;SDS011;10178;48.034;9.800;2022-12-10T05:58:07;31.67;;;17.17;;
20034;SDS011;10178;48.034;9.800;2022-12-10T06:00:33;32.17;;;17.07;;
20034;SDS011;10178;48.034;9.800;2022-12-10T06:02:59;28.83;;;15.90;;
20034;SDS011;10178;48.034;9.800;2022-12-10T06:05:25;31.17;;;16.13;;
20034;SDS011;10178;48.034;9.800;2022-12-10T06:07:50;29.03;;;16.17;;
20034;SDS011;10178;48.034;9.800;2022-12-10T06:10:16;30.60;;;16.43;;
20034;SDS011;10178;48.034;9.800;2022-12-10T06:12:42;28.97;;;15.43;;
20034;SDS011;10178;48.034;9.800;2022-12-10T06:15:08;30.47;;;16.67;;
20034;SDS011;10178;48.034;9.800;2022-12-10T06:17:34;29.93;;;15.83;;
20034;SDS011;10178;48.034;9.800;2022-12-10T06:20:01;30.53;;;16.73;;
20034;SDS011;10178;48.034;9.800;2022-12-10T06:22:27;32.07;;;16.90;;
20034;SDS011;10178;48.034;9.800;2022-12-10T06:24:52;30.17;;;16.57;;
20034;SDS011;10178;48.034;9.800;2022-12-10T06:27:18;31.20;;;17.23;;
20034;SDS011;10178;48.034;9.800;2022-12-10T06:29:44;30.73;;;17.73;;
20034;SDS011;10178;48.034;9.800;2022-12-10T06:32:09;30.93;;;17.50;;
20034;SDS011;10178;48.034;9.800;2022-12-10T06:34:35;29.93;;;16.43;;
20034;SDS011;10178;48.034;9.800;2022-12-10T06:37:00;31.50;;;17.20;;
20034;SDS011;10178;48.034;9.800;2022-12-10T06:39:27;31.83;;;17.23;;
20034;SDS011;10178;48.034;9.800;2022-12-10T06:41:53;32.80;;;18.00;;
20034;SDS011;10178;48.034;9.800;2022-12-10T06:44:18;32.60;;;18.07;;
20034;SDS011;10178;48.034;9.800;2022-12-10T06:46:44;29.53;;;17.53;;
20034;SDS011;10178;48.034;9.800;2022-12-10T06:49:09;32.90;;;18.43;;
20034;SDS011;10178;48.034;9.800;2022-12-10T06:51:35;34.27;;;18.37;;
20034;SDS011;10178;48.034;9.800;2022-12-10T06:54:03;33.20;;;18.23;;
20034;SDS011;10178;48.034;9.800;2022-12-10T06:56:29;34.40;;;18.57;;
20034;SDS011;10178;48.034;9.800;2022-12-10T06:58:55;30.30;;;17.43;;
20034;SDS011;10178;48.034;9.800;2022-12-10T07:01:21;33.33;;;19.43;;
20034;SDS011;10178;48.034;9.800;2022-12-10T07:03:51;31.53;;;17.60;;
20034;SDS011;10178;48.034;9.800;2022-12-10T07:06:19;32.07;;;18.70;;
20034;SDS011;10178;48.034;9.800;2022-12-10T07:08:45;32.57;;;19.13;;
20034;SDS011;10178;48.034;9.800;2022-12-10T07:11:12;32.80;;;19.90;;
20034;SDS011;10178;48.034;9.800;2022-12-10T07:13:39;33.67;;;19.37;;
20034;SDS011;10178;48.034;9.800;2022-12-10T07:16:15;32.57;;;19.10;;
20034;SDS011;10178;48.034;9.800;2022-12-10T07:18:42;36.03;;;20.53;;
20034;SDS011;10178;48.034;9.800;2022-12-10T07:23:49;34.20;;;20.13;;
20034;SDS011;10178;48.034;9.800;2022-12-10T07:26:16;33.27;;;20.10;;
20034;SDS011;10178;48.034;9.800;2022-12-10T07:28:42;33.77;;;20.37;;
20034;SDS011;10178;48.034;9.800;2022-12-10T07:31:08;34.60;;;20.47;;
20034;SDS011;10178;48.034;9.800;2022-12-10T07:33:35;36.93;;;20.53;;
20034;SDS011;10178;48.034;9.800;2022-12-10T07:36:08;33.77;;;20.60;;
20034;SDS011;10178;48.034;9.800;2022-12-10T07:38:35;35.13;;;20.80;;
20034;SDS011;10178;48.034;9.800;2022-12-10T07:41:02;33.27;;;20.47;;
20034;SDS011;10178;48.034;9.800;2022-12-10T07:43:36;38.73;;;21.97;;
20034;SDS011;10178;48.034;9.800;2022-12-10T07:46:25;33.90;;;19.87;;
20034;SDS011;10178;48.034;9.800;2022-12-10T07:48:53;33.60;;;20.70;;
20034;SDS011;10178;48.034;9.800;2022-12-10T07:51:20;37.10;;;21.97;;
20034;SDS011;10178;48.034;9.800;2022-12-10T07:53:46;31.70;;;19.93;;
20034;SDS011;10178;48.034;9.800;2022-12-10T07:56:12;36.57;;;21.43;;
20034;SDS011;10178;48.034;9.800;2022-12-10T07:58:40;33.47;;;21.17;;
20034;SDS011;10178;48.034;9.800;2022-12-10T08:01:08;36.20;;;21.43;;
20034;SDS011;10178;48.034;9.800;2022-12-10T08:03:35;36.23;;;21.53;;
20034;SDS011;10178;48.034;9.800;2022-12-10T08:06:05;34.37;;;21.03;;
20034;SDS011;10178;48.034;9.800;2022-12-10T08:08:33;32.27;;;21.13;;
20034;SDS011;10178;48.034;9.800;2022-12-10T08:10:59;35.70;;;20.77;;
20034;SDS011;10178;48.034;9.800;2022-12-10T08:13:26;33.07;;;20.53;;
20034;SDS011;10178;48.034;9.800;2022-12-10T08:15:52;34.13;;;20.97;;
20034;SDS011;10178;48.034;9.800;2022-12-10T08:18:18;33.23;;;20.47;;
20034;SDS011;10178;48.034;9.800;2022-12-10T08:20:43;33.30;;;20.13;;
20034;SDS011;10178;48.034;9.800;2022-12-10T08:23:09;34.23;;;20.87;;
20034;SDS011;10178;48.034;9.800;2022-12-10T08:25:35;32.47;;;21.00;;
20034;SDS011;10178;48.034;9.800;2022-12-10T08:28:01;33.23;;;19.73;;
20034;SDS011;10178;48.034;9.800;2022-12-10T08:30:28;33.07;;;21.53;;
20034;SDS011;10178;48.034;9.800;2022-12-10T08:32:54;34.50;;;20.87;;
20034;SDS011;10178;48.034;9.800;2022-12-10T08:35:20;34.63;;;21.00;;
20034;SDS011;10178;48.034;9.800;2022-12-10T08:37:45;32.53;;;20.77;;
20034;SDS011;10178;48.034;9.800;2022-12-10T08:40:11;34.50;;;21.07;;
20034;SDS011;10178;48.034;9.800;2022-12-10T08:42:37;31.20;;;20.87;;
20034;SDS011;10178;48.034;9.800;2022-12-10T08:45:03;34.80;;;20.43;;
20034;SDS011;10178;48.034;9.800;2022-12-10T08:47:29;32.43;;;20.70;;
20034;SDS011;10178;48.034;9.800;2022-12-10T08:49:55;32.47;;;20.27;;
20034;SDS011;10178;48.034;9.800;2022-12-10T08:52:21;34.00;;;20.07;;
20034;SDS011;10178;48.034;9.800;2022-12-10T08:54:46;33.77;;;20.13;;
20034;SDS011;10178;48.034;9.800;2022-12-10T08:57:12;30.80;;;19.57;;
20034;SDS011;10178;48.034;9.800;2022-12-10T08:59:37;31.83;;;19.03;;
20034;SDS011;10178;48.034;9.800;2022-12-10T09:02:03;33.40;;;21.10;;
20034;SDS011;10178;48.034;9.800;2022-12-10T09:04:28;31.27;;;19.70;;
20034;SDS011;10178;48.034;9.800;2022-12-10T09:09:19;33.20;;;19.67;;
20034;SDS011;10178;48.034;9.800;2022-12-10T09:11:45;28.57;;;18.73;;
20034;SDS011;10178;48.034;9.800;2022-12-10T09:14:11;32.83;;;18.83;;
20034;SDS011;10178;48.034;9.800;2022-12-10T09:16:38;30.17;;;18.43;;
20034;SDS011;10178;48.034;9.800;2022-12-10T09:19:07;29.53;;;18.97;;
20034;SDS011;10178;48.034;9.800;2022-12-10T09:21:32;32.50;;;20.00;;
20034;SDS011;10178;48.034;9.800;2022-12-10T09:23:58;27.97;;;18.00;;
20034;SDS011;10178;48.034;9.800;2022-12-10T09:26:24;33.27;;;20.03;;
20034;SDS011;10178;48.034;9.800;2022-12-10T09:28:51;30.77;;;18.67;;
20034;SDS011;10178;48.034;9.800;2022-12-10T09:31:17;27.03;;;18.10;;
20034;SDS011;10178;48.034;9.800;2022-12-10T09:33:44;27.50;;;18.43;;
20034;SDS011;10178;48.034;9.800;2022-12-10T09:36:11;31.03;;;18.57;;
20034;SDS011;10178;48.034;9.800;2022-12-10T09:38:38;27.67;;;17.97;;
20034;SDS011;10178;48.034;9.800;2022-12-10T09:41:51;28.03;;;17.80;;
20034;SDS011;10178;48.034;9.800;2022-12-10T09:51:55;28.07;;;16.53;;
20034;SDS011;10178;48.034;9.800;2022-12-10T09:54:47;27.57;;;16.13;;
20034;SDS011;10178;48.034;9.800;2022-12-10T09:57:22;28.07;;;17.67;;
20034;SDS011;10178;48.034;9.800;2022-12-10T09:59:50;29.07;;;17.37;;
20034;SDS011;10178;48.034;9.800;2022-12-10T10:02:27;27.97;;;17.37;;
20034;SDS011;10178;48.034;9.800;2022-12-10T10:05:08;26.00;;;16.10;;
20034;SDS011;10178;48.034;9.800;2022-12-10T10:07:47;27.67;;;17.03;;
20034;SDS011;10178;48.034;9.800;2022-12-10T10:12:47;25.77;;;16.07;;
20034;SDS011;10178;48.034;9.800;2022-12-10T10:15:16;25.63;;;15.63;;
20034;SDS011;10178;48.034;9.800;2022-12-10T10:17:47;23.87;;;16.67;;
20034;SDS011;10178;48.034;9.800;2022-12-10T10:20:14;24.77;;;16.23;;
20034;SDS011;10178;48.034;9.800;2022-12-10T10:22:40;26.47;;;16.37;;
20034;SDS011;10178;48.034;9.800;2022-12-10T10:25:09;24.53;;;15.90;;
20034;SDS011;10178;48.034;9.800;2022-12-10T10:27:40;25.50;;;15.23;;
20034;SDS011;10178;48.034;9.800;2022-12-10T10:30:06;25.20;;;15.90;;
20034;SDS011;10178;48.034;9.800;2022-12-10T10:35:04;24.07;;;16.13;;
20034;SDS011;10178;48.034;9.800;2022-12-10T10:37:31;22.30;;;15.37;;
20034;SDS011;10178;48.034;9.800;2022-12-10T10:40:06;25.00;;;15.60;;
20034;SDS011;10178;48.034;9.800;2022-12-10T10:42:41;25.47;;;15.33;;
20034;SDS011;10178;48.034;9.800;2022-12-10T10:48:06;24.50;;;15.63;;
20034;SDS011;10178;48.034;9.800;2022-12-10T10:50:40;24.37;;;15.00;;
20034;SDS011;10178;48.034;9.800;2022-12-10T10:56:22;25.10;;;15.47;;
20034;SDS011;10178;48.034;9.800;2022-12-10T11:04:13;23.43;;;15.10;;
20034;SDS011;10178;48.034;9.800;2022-12-10T11:06:41;25.23;;;14.90;;
20034;SDS011;10178;48.034;9.800;2022-12-10T11:09:07;24.03;;;14.30;;
20034;SDS011;10178;48.034;9.800;2022-12-10T11:11:34;23.67;;;14.60;;
20034;SDS011;10178;48.034;9.800;2022-12-10T11:14:15;23.00;;;13.97;;
20034;SDS011;10178;48.034;9.800;2022-12-10T11:16:48;22.80;;;14.57;;
20034;SDS011;10178;48.034;9.800;2022-12-10T11:19:21;23.13;;;14.17;;
20034;SDS011;10178;48.034;9.800;2022-12-10T11:21:48;25.83;;;13.93;;
20034;SDS011;10178;48.034;9.800;2022-12-10T11:24:15;21.53;;;14.00;;
20034;SDS011;10178;48.034;9.800;2022-12-10T11:27:01;23.30;;;13.87;;
20034;SDS011;10178;48.034;9.800;2022-12-10T11:29:34;24.37;;;14.77;;
20034;SDS011;10178;48.034;9.800;2022-12-10T11:40:30;21.87;;;13.57;;
20034;SDS011;10178;48.034;9.800;2022-12-10T11:56:36;21.20;;;13.30;;
20034;SDS011;10178;48.034;9.800;2022-12-10T12:13:54;20.67;;;13.03;;
20034;SDS011;10178;48.034;9.800;2022-12-10T12:16:41;20.37;;;13.20;;
20034;SDS011;10178;48.034;9.800;2022-12-10T12:19:15;19.13;;;12.57;;
20034;SDS011;10178;48.034;9.800;2022-12-10T12:21:48;20.70;;;12.73;;
20034;SDS011;10178;48.034;9.800;2022-12-10T12:24:22;22.70;;;13.73;;
20034;SDS011;10178;48.034;9.800;2022-12-10T12:26:58;21.60;;;13.17;;
20034;SDS011;10178;48.034;9.800;2022-12-10T12:32:20;20.43;;;12.97;;
20034;SDS011;10178;48.034;9.800;2022-12-10T12:35:02;22.97;;;13.87;;
20034;SDS011;10178;48.034;9.800;2022-12-10T12:37:47;19.90;;;12.63;;
20034;SDS011;10178;48.034;9.800;2022-12-10T12:40:29;20.53;;;12.80;;
20034;SDS011;10178;48.034;9.800;2022-12-10T12:43:02;20.33;;;12.70;;
20034;SDS011;10178;48.034;9.800;2022-12-10T12:45:39;19.87;;;12.47;;
20034;SDS011;10178;48.034;9.800;2022-12-10T12:51:05;19.43;;;11.73;;
20034;SDS011;10178;48.034;9.800;2022-12-10T12:53:34;15.47;;;9.27;;
20034;SDS011;10178;48.034;9.800;2022-12-10T13:01:58;22.47;;;12.60;;
20034;SDS011;10178;48.034;9.800;2022-12-10T13:04:43;22.20;;;13.87;;
20034;SDS011;10178;48.034;9.800;2022-12-10T13:09:45;21.00;;;13.87;;
20034;SDS011;10178;48.034;9.800;2022-12-10T13:20:31;20.40;;;12.20;;
20034;SDS011;10178;48.034;9.800;2022-12-10T13:23:27;21.77;;;12.33;;
20034;SDS011;10178;48.034;9.800;2022-12-10T13:28:28;19.07;;;12.17;;
20034;SDS011;10178;48.034;9.800;2022-12-10T13:31:07;17.23;;;11.73;;
20034;SDS011;10178;48.034;9.800;2022-12-10T13:33:46;18.30;;;11.23;;
20034;SDS011;10178;48.034;9.800;2022-12-10T13:50:17;18.83;;;10.97;;
20034;SDS011;10178;48.034;9.800;2022-12-10T13:55:38;16.83;;;11.53;;
20034;SDS011;10178;48.034;9.800;2022-12-10T13:58:23;16.00;;;10.47;;
20034;SDS011;10178;48.034;9.800;2022-12-10T14:01:12;17.67;;;11.00;;
20034;SDS011;10178;48.034;9.800;2022-12-10T14:06:23;16.70;;;11.30;;
20034;SDS011;10178;48.034;9.800;2022-12-10T14:11:47;15.73;;;10.27;;
20034;SDS011;10178;48.034;9.800;2022-12-10T14:14:23;16.57;;;10.63;;
20034;SDS011;10178;48.034;9.800;2022-12-10T14:17:04;15.63;;;9.77;;
20034;SDS011;10178;48.034;9.800;2022-12-10T14:19:37;17.13;;;9.20;;
20034;SDS011;10178;48.034;9.800;2022-12-10T14:22:07;13.93;;;9.67;;
20034;SDS011;10178;48.034;9.800;2022-12-10T14:24:38;16.73;;;10.90;;
20034;SDS011;10178;48.034;9.800;2022-12-10T14:27:26;15.53;;;9.83;;
20034;SDS011;10178;48.034;9.800;2022-12-10T14:29:53;15.97;;;9.90;;
20034;SDS011;10178;48.034;9.800;2022-12-10T14:32:33;17.50;;;11.10;;
20034;SDS011;10178;48.034;9.800;2022-12-10T14:35:04;15.63;;;9.97;;
20034;SDS011;10178;48.034;9.800;2022-12-10T14:37:33;16.43;;;10.47;;
20034;SDS011;10178;48.034;9.800;2022-12-10T14:40:03;14.90;;;10.13;;
20034;SDS011;10178;48.034;9.800;2022-12-10T14:42:30;13.10;;;9.50;;
20034;SDS011;10178;48.034;9.800;2022-12-10T14:44:57;15.30;;;10.37;;
20034;SDS011;10178;48.034;9.800;2022-12-10T14:47:25;14.63;;;9.97;;
20034;SDS011;10178;48.034;9.800;2022-12-10T14:49:57;14.70;;;9.80;;
20034;SDS011;10178;48.034;9.800;2022-12-10T14:52:31;15.40;;;9.83;;
20034;SDS011;10178;48.034;9.800;2022-12-10T14:55:00;15.80;;;10.03;;
20034;SDS011;10178;48.034;9.800;2022-12-10T14:57:33;13.53;;;9.60;;
20034;SDS011;10178;48.034;9.800;2022-12-10T15:00:07;14.77;;;10.20;;
20034;SDS011;10178;48.034;9.800;2022-12-10T15:02:42;15.73;;;10.00;;
20034;SDS011;10178;48.034;9.800;2022-12-10T15:05:17;13.50;;;9.97;;
20034;SDS011;10178;48.034;9.800;2022-12-10T15:08:02;15.30;;;10.03;;
20034;SDS011;10178;48.034;9.800;2022-12-10T15:10:31;15.93;;;10.97;;
20034;SDS011;10178;48.034;9.800;2022-12-10T15:12:57;16.27;;;10.70;;
20034;SDS011;10178;48.034;9.800;2022-12-10T15:15:26;15.50;;;10.80;;
20034;SDS011;10178;48.034;9.800;2022-12-10T15:17:58;15.90;;;10.50;;
20034;SDS011;10178;48.034;9.800;2022-12-10T15:20:25;16.13;;;10.70;;
20034;SDS011;10178;48.034;9.800;2022-12-10T15:22:54;17.57;;;11.47;;
20034;SDS011;10178;48.034;9.800;2022-12-10T15:25:30;19.47;;;11.27;;
20034;SDS011;10178;48.034;9.800;2022-12-10T15:28:20;19.10;;;10.77;;
20034;SDS011;10178;48.034;9.800;2022-12-10T15:33:47;16.83;;;10.90;;
20034;SDS011;10178;48.034;9.800;2022-12-10T15:36:32;20.67;;;12.77;;
20034;SDS011;10178;48.034;9.800;2022-12-10T15:39:03;17.57;;;11.57;;
20034;SDS011;10178;48.034;9.800;2022-12-10T15:42:24;21.93;;;13.47;;
20034;SDS011;10178;48.034;9.800;2022-12-10T15:47:01;21.07;;;12.83;;
20034;SDS011;10178;48.034;9.800;2022-12-10T15:49:48;21.70;;;13.57;;
20034;SDS011;10178;48.034;9.800;2022-12-10T15:54:48;20.57;;;13.07;;
20034;SDS011;10178;48.034;9.800;2022-12-10T15:57:17;21.03;;;12.80;;
20034;SDS011;10178;48.034;9.800;2022-12-10T15:59:43;18.03;;;12.63;;
20034;SDS011;10178;48.034;9.800;2022-12-10T16:05:12;21.63;;;13.20;;
20034;SDS011;10178;48.034;9.800;2022-12-10T16:07:39;20.57;;;13.13;;
20034;SDS011;10178;48.034;9.800;2022-12-10T16:10:05;23.07;;;13.73;;
20034;SDS011;10178;48.034;9.800;2022-12-10T16:12:31;19.97;;;13.67;;
20034;SDS011;10178;48.034;9.800;2022-12-10T16:14:59;21.50;;;14.13;;
20034;SDS011;10178;48.034;9.800;2022-12-10T16:17:26;20.07;;;13.10;;
20034;SDS011;10178;48.034;9.800;2022-12-10T16:19:53;21.40;;;14.43;;
20034;SDS011;10178;48.034;9.800;2022-12-10T16:22:21;19.77;;;13.10;;
20034;SDS011;10178;48.034;9.800;2022-12-10T16:24:47;20.73;;;12.83;;
20034;SDS011;10178;48.034;9.800;2022-12-10T16:27:13;19.80;;;13.07;;
20034;SDS011;10178;48.034;9.800;2022-12-10T16:29:40;19.17;;;12.93;;
20034;SDS011;10178;48.034;9.800;2022-12-10T16:32:08;19.50;;;13.10;;
20034;SDS011;10178;48.034;9.800;2022-12-10T16:34:37;20.17;;;13.20;;
20034;SDS011;10178;48.034;9.800;2022-12-10T16:37:04;20.93;;;14.03;;
20034;SDS011;10178;48.034;9.800;2022-12-10T16:39:31;20.07;;;12.50;;
20034;SDS011;10178;48.034;9.800;2022-12-10T16:41:57;19.90;;;13.27;;
20034;SDS011;10178;48.034;9.800;2022-12-10T16:44:23;19.40;;;13.30;;
20034;SDS011;10178;48.034;9.800;2022-12-10T16:46:48;19.57;;;12.77;;
20034;SDS011;10178;48.034;9.800;2022-12-10T16:49:14;21.67;;;13.53;;
20034;SDS011;10178;48.034;9.800;2022-12-10T16:51:39;21.37;;;13.17;;
20034;SDS011;10178;48.034;9.800;2022-12-10T16:54:08;18.30;;;12.70;;
20034;SDS011;10178;48.034;9.800;2022-12-10T16:56:38;20.43;;;13.60;;
20034;SDS011;10178;48.034;9.800;2022-12-10T16:59:04;21.20;;;13.47;;
20034;SDS011;10178;48.034;9.800;2022-12-10T17:01:30;20.93;;;13.80;;